Time,TemperatureF,DewpointF,PressureIn,WindDirection,WindDirectionDegrees,WindSpeedMPH,WindSpeedGustMPH,Humidity,HourlyPrecipIn,Conditions,Clouds,dailyrainin,SoftwareType,DateUTC
2013-02-05 00:03:00,36.7,32.9,29.91,SW,225,0.0,0.0,86,0.00,-RA,SKC,0.00,WeatherDisplay:10.37,2013-02-04 23:03:00,
2013-02-05 00:08:00,36.7,32.9,29.91,WSW,248,0.1,0.7,86,0.00,-RA,SKC,0.00,WeatherDisplay:10.37,2013-02-04 23:08:00,
2013-02-05 00:13:00,36.9,32.8,29.91,West,270,0.0,0.0,85,0.00,-RA,SKC,0.00,WeatherDisplay:10.37,2013-02-04 23:13:00,
2013-02-05 00:18:00,36.9,32.8,29.91,WSW,248,1.6,1.6,85,0.00,OVC,SKC,0.00,WeatherDisplay:10.37,2013-02-04 23:18:00,
2013-02-05 00:23:00,37.0,32.9,29.91,WSW,248,0.9,2.3,85,0.00,OVC,SKC,0.00,WeatherDisplay:10.37,2013-02-04 23:23:00,
2013-02-05 00:28:00,37.0,32.9,29.91,South,180,0.0,0.0,85,0.00,OVC,SKC,0.00,WeatherDisplay:10.37,2013-02-04 23:28:00,
2013-02-05 00:33:00,37.0,32.9,29.91,SE,135,0.0,0.0,85,0.00,OVC,SKC,0.00,WeatherDisplay:10.37,2013-02-04 23:33:00,
2013-02-05 00:38:00,37.0,32.9,29.91,SE,135,0.0,0.0,85,0.00,OVC,SKC,0.00,WeatherDisplay:10.37,2013-02-04 23:38:00,
2013-02-05 00:43:00,37.0,32.9,29.91,SE,135,0.0,0.0,85,0.00,OVC,SKC,0.00,WeatherDisplay:10.37,2013-02-04 23:43:00,
2013-02-05 00:48:00,37.0,32.9,29.91,ENE,68,0.0,0.0,85,0.00,OVC,SKC,0.00,WeatherDisplay:10.37,2013-02-04 23:48:00,
2013-02-05 00:53:00,37.0,32.9,29.91,South,180,0.0,0.0,85,0.00,OVC,SKC,0.00,WeatherDisplay:10.37,2013-02-04 23:53:00,
2013-02-05 00:58:00,37.0,32.9,29.91,South,180,0.0,0.0,85,0.00,OVC,SKC,0.00,WeatherDisplay:10.37,2013-02-04 23:58:00,
2013-02-05 01:03:00,37.0,32.9,29.91,South,180,0.1,1.6,85,0.00,OVC,SKC,0.00,WeatherDisplay:10.37,2013-02-05 00:03:00,
2013-02-05 01:08:00,37.0,32.9,29.91,SSE,158,0.0,0.0,85,0.00,OVC,SKC,0.00,WeatherDisplay:10.37,2013-02-05 00:08:00,
2013-02-05 01:13:00,37.0,32.9,29.90,West,270,0.0,0.0,85,0.00,OVC,SKC,0.00,WeatherDisplay:10.37,2013-02-05 00:13:00,
2013-02-05 01:18:00,37.0,32.7,29.91,SSW,202,0.7,1.1,84,0.00,OVC,SKC,0.00,WeatherDisplay:10.37,2013-02-05 00:18:00,
2013-02-05 01:23:00,37.2,32.8,29.91,West,262,0.0,0.0,84,0.00,OVC,SKC,0.00,WeatherDisplay:10.37,2013-02-05 00:23:00,
2013-02-05 01:28:00,37.0,32.7,29.91,WSW,254,0.0,0.0,84,0.00,OVC,SKC,0.00,WeatherDisplay:10.37,2013-02-05 00:28:00,
2013-02-05 01:33:00,37.0,32.9,29.92,SW,231,2.0,2.0,85,0.00,OVC,SKC,0.00,WeatherDisplay:10.37,2013-02-05 00:33:00,
2013-02-05 01:38:00,37.3,32.9,29.92,WSW,257,2.0,2.0,84,0.00,OVC,SKC,0.00,WeatherDisplay:10.37,2013-02-05 00:38:00,
2013-02-05 01:43:00,37.4,33.0,29.92,West,265,0.0,0.0,84,0.00,OVC,SKC,0.00,WeatherDisplay:10.37,2013-02-05 00:43:00,
2013-02-05 01:48:00,37.6,33.2,29.92,West,267,0.0,0.0,84,0.00,-RA,SKC,0.00,WeatherDisplay:10.37,2013-02-05 00:48:00,
2013-02-05 01:53:00,37.8,33.4,29.92,West,275,1.0,2.0,84,0.00,-RA,SKC,0.00,WeatherDisplay:10.37,2013-02-05 00:53:00,
2013-02-05 01:58:00,37.8,33.1,29.92,NW,315,0.3,0.0,83,0.00,-RA,SKC,0.00,WeatherDisplay:10.37,2013-02-05 00:58:00,
2013-02-05 02:03:00,37.8,33.1,29.92,NW,315,0.0,0.0,83,0.00,-RA,SKC,0.00,WeatherDisplay:10.37,2013-02-05 01:03:00,
2013-02-05 02:08:00,37.4,33.0,29.92,NNE,22,0.0,0.0,84,0.00,-RA,SKC,0.00,WeatherDisplay:10.37,2013-02-05 01:08:00,
2013-02-05 02:13:00,37.2,32.8,29.92,NNW,338,0.0,0.0,84,0.00,-RA,SKC,0.00,WeatherDisplay:10.37,2013-02-05 01:13:00,
2013-02-05 02:18:00,37.2,32.8,29.92,NW,304,0.0,0.0,84,0.00,BKN,SKC,0.00,WeatherDisplay:10.37,2013-02-05 01:18:00,
2013-02-05 02:23:00,36.6,32.2,29.92,West,271,1.0,1.0,84,0.00,BKN,SKC,0.00,WeatherDisplay:10.37,2013-02-05 01:23:00,
2013-02-05 02:28:00,36.3,32.2,29.92,WNW,285,0.0,0.0,85,0.00,BKN,SKC,0.00,WeatherDisplay:10.37,2013-02-05 01:28:00,
2013-02-05 02:33:00,36.1,32.4,29.91,WNW,292,0.0,0.0,86,0.00,BKN,SKC,0.00,WeatherDisplay:10.37,2013-02-05 01:33:00,
2013-02-05 02:38:00,36.0,32.2,29.91,WNW,292,1.0,1.0,86,0.00,BKN,SKC,0.00,WeatherDisplay:10.37,2013-02-05 01:38:00,
2013-02-05 02:43:00,36.0,32.5,29.92,WNW,289,1.0,1.0,87,0.00,BKN,SKC,0.00,WeatherDisplay:10.37,2013-02-05 01:43:00,
2013-02-05 02:48:00,36.0,32.5,29.92,West,262,3.0,4.0,87,0.00,BKN,SKC,0.00,WeatherDisplay:10.37,2013-02-05 01:48:00,
2013-02-05 02:53:00,36.5,33.0,29.92,West,273,0.0,0.0,87,0.00,BKN,SKC,0.00,WeatherDisplay:10.37,2013-02-05 01:53:00,
2013-02-05 02:58:00,37.0,33.5,29.92,West,279,0.0,0.0,87,0.00,BKN,SKC,0.00,WeatherDisplay:10.37,2013-02-05 01:58:00,
2013-02-05 03:03:00,37.2,33.4,29.91,WSW,248,0.0,0.0,86,0.00,BKN,SKC,0.00,WeatherDisplay:10.37,2013-02-05 02:03:00,
2013-02-05 03:08:00,37.2,33.4,29.90,WSW,248,0.3,2.3,86,0.00,BKN,SKC,0.00,WeatherDisplay:10.37,2013-02-05 02:08:00,
2013-02-05 03:13:00,37.2,33.4,29.90,West,270,2.0,2.3,86,0.00,BKN,SKC,0.00,WeatherDisplay:10.37,2013-02-05 02:13:00,
2013-02-05 03:18:00,37.2,33.4,29.91,West,270,0.0,0.0,86,0.00,-RA,SKC,0.00,WeatherDisplay:10.37,2013-02-05 02:18:00,
2013-02-05 03:23:00,37.8,33.9,29.90,SE,135,0.0,0.0,86,0.00,-RA,SKC,0.00,WeatherDisplay:10.37,2013-02-05 02:23:00,
2013-02-05 03:28:00,37.8,33.9,29.90,South,180,0.0,0.0,86,0.00,-RA,SKC,0.00,WeatherDisplay:10.37,2013-02-05 02:28:00,
2013-02-05 03:33:00,37.4,33.9,29.90,SSW,202,1.1,1.1,87,0.00,-RA,SKC,0.00,WeatherDisplay:10.37,2013-02-05 02:33:00,
2013-02-05 03:38:00,37.2,33.4,29.90,SW,225,0.0,0.0,86,0.00,-RA,SKC,0.00,WeatherDisplay:10.37,2013-02-05 02:38:00,
2013-02-05 03:43:00,36.9,33.4,29.90,West,270,2.1,2.3,87,0.00,-RA,SKC,0.00,WeatherDisplay:10.37,2013-02-05 02:43:00,
2013-02-05 03:48:00,36.9,33.4,29.90,West,270,0.0,0.0,87,0.00,-RA,SKC,0.00,WeatherDisplay:10.37,2013-02-05 02:48:00,
2013-02-05 03:53:00,36.7,33.2,29.89,WNW,292,0.0,0.0,87,0.00,-RA,SKC,0.00,WeatherDisplay:10.37,2013-02-05 02:53:00,
2013-02-05 03:58:00,36.3,33.1,29.89,ENE,68,0.0,0.0,88,0.00,-RA,SKC,0.00,WeatherDisplay:10.37,2013-02-05 02:58:00,
2013-02-05 04:03:00,36.0,32.8,29.89,North,0,0.0,0.0,88,0.00,-RA,SKC,0.00,WeatherDisplay:10.37,2013-02-05 03:03:00,
2013-02-05 04:08:00,35.8,32.6,29.89,NW,315,0.0,0.0,88,0.00,-RA,SKC,0.00,WeatherDisplay:10.37,2013-02-05 03:08:00,
2013-02-05 04:13:00,35.4,32.2,29.90,West,270,0.6,1.1,88,0.00,-RA,SKC,0.00,WeatherDisplay:10.37,2013-02-05 03:13:00,
2013-02-05 04:18:00,35.4,32.5,29.90,West,270,0.0,0.0,89,0.00,-RA,SKC,0.00,WeatherDisplay:10.37,2013-02-05 03:18:00,
2013-02-05 04:23:00,35.4,32.5,29.90,West,270,0.0,0.0,89,0.00,-RA,SKC,0.00,WeatherDisplay:10.37,2013-02-05 03:23:00,
2013-02-05 04:28:00,35.4,32.5,29.90,West,270,0.0,0.0,89,0.00,-RA,SKC,0.00,WeatherDisplay:10.37,2013-02-05 03:28:00,
2013-02-05 04:33:00,34.7,31.8,29.89,West,270,0.0,0.0,89,0.00,BKN,SKC,0.00,WeatherDisplay:10.37,2013-02-05 03:33:00,
2013-02-05 04:38:00,34.3,31.4,29.89,West,270,0.0,0.0,89,0.00,BKN,SKC,0.00,WeatherDisplay:10.37,2013-02-05 03:38:00,
2013-02-05 04:43:00,34.3,31.4,29.89,West,270,0.0,0.0,89,0.00,BKN,SKC,0.00,WeatherDisplay:10.37,2013-02-05 03:43:00,
2013-02-05 04:48:00,34.3,31.4,29.88,West,270,0.0,0.0,89,0.00,SCT,SKC,0.00,WeatherDisplay:10.37,2013-02-05 03:48:00,
2013-02-05 04:53:00,34.2,31.3,29.89,West,270,0.0,0.0,89,0.00,SCT,SKC,0.00,WeatherDisplay:10.37,2013-02-05 03:53:00,
2013-02-05 04:58:00,34.2,31.3,29.89,West,270,0.0,0.0,89,0.00,SCT,SKC,0.00,WeatherDisplay:10.37,2013-02-05 03:58:00,
2013-02-05 05:03:00,34.0,31.4,29.88,West,270,0.0,0.0,90,0.00,SCT,SKC,0.00,WeatherDisplay:10.37,2013-02-05 04:03:00,
2013-02-05 05:08:00,34.0,31.4,29.88,West,270,0.0,0.0,90,0.00,SCT,SKC,0.00,WeatherDisplay:10.37,2013-02-05 04:08:00,
2013-02-05 05:13:00,33.6,31.0,29.88,West,270,0.0,0.0,90,0.00,SCT,SKC,0.00,WeatherDisplay:10.37,2013-02-05 04:13:00,
2013-02-05 05:18:00,33.4,30.8,29.88,WNW,292,0.0,0.0,90,0.00,SCT,SKC,0.00,WeatherDisplay:10.37,2013-02-05 04:18:00,
2013-02-05 05:23:00,33.1,30.5,29.88,WNW,292,0.0,0.0,90,0.00,SCT,SKC,0.00,WeatherDisplay:10.37,2013-02-05 04:23:00,
2013-02-05 05:28:00,32.9,30.3,29.88,West,270,0.0,0.0,90,0.00,SCT,SKC,0.00,WeatherDisplay:10.37,2013-02-05 04:28:00,
2013-02-05 05:33:00,32.7,30.1,29.88,West,270,0.0,0.0,90,0.00,SCT,SKC,0.00,WeatherDisplay:10.37,2013-02-05 04:33:00,
2013-02-05 05:38:00,32.7,30.4,29.87,WNW,292,0.0,0.0,91,0.00,SCT,SKC,0.00,WeatherDisplay:10.37,2013-02-05 04:38:00,
2013-02-05 05:43:00,32.5,30.2,29.87,WNW,292,0.0,0.0,91,0.00,SCT,SKC,0.00,WeatherDisplay:10.37,2013-02-05 04:43:00,
2013-02-05 05:48:00,32.4,30.0,29.87,WNW,292,0.0,0.0,91,0.00,CLR,SKC,0.00,WeatherDisplay:10.37,2013-02-05 04:48:00,
2013-02-05 05:54:00,32.4,30.0,29.88,South,180,1.6,1.6,91,0.00,CLR,SKC,0.00,WeatherDisplay:10.37,2013-02-05 04:54:00,
2013-02-05 05:59:00,32.5,30.2,29.88,SSE,158,0.0,0.0,91,0.00,CLR,SKC,0.00,WeatherDisplay:10.37,2013-02-05 04:59:00,
2013-02-05 06:00:00,32.5,30.2,29.88,SSE,158,0.0,0.0,91,0.00,CLR,SKC,0.00,WeatherDisplay:10.37,2013-02-05 05:00:00,
2013-02-05 06:01:00,32.5,30.2,29.87,SSE,158,0.0,0.0,91,0.00,CLR,SKC,0.00,WeatherDisplay:10.37,2013-02-05 05:01:00,
2013-02-05 06:06:00,31.8,29.5,29.87,East,90,0.0,0.0,91,0.00,CLR,SKC,0.00,WeatherDisplay:10.37,2013-02-05 05:06:00,
2013-02-05 06:11:00,31.8,29.5,29.87,NNW,338,0.9,1.1,91,0.00,CLR,SKC,0.00,WeatherDisplay:10.37,2013-02-05 05:11:00,
2013-02-05 06:16:00,31.6,29.3,29.87,NNW,338,0.0,0.0,91,0.00,CLR,SKC,0.00,WeatherDisplay:10.37,2013-02-05 05:16:00,
2013-02-05 06:21:00,31.8,29.5,29.87,West,270,0.0,0.0,91,0.00,CLR,SKC,0.00,WeatherDisplay:10.37,2013-02-05 05:21:00,
2013-02-05 06:26:00,31.8,29.5,29.87,West,270,0.0,0.0,91,0.00,CLR,SKC,0.00,WeatherDisplay:10.37,2013-02-05 05:26:00,
2013-02-05 06:31:00,32.2,29.8,29.87,WNW,292,0.0,0.0,91,0.00,CLR,SKC,0.00,WeatherDisplay:10.37,2013-02-05 05:31:00,
2013-02-05 06:36:00,32.2,29.8,29.87,WNW,292,0.0,0.0,91,0.00,CLR,SKC,0.00,WeatherDisplay:10.37,2013-02-05 05:36:00,
2013-02-05 06:41:00,31.8,29.5,29.86,WNW,292,0.0,0.0,91,0.00,CLR,SKC,0.00,WeatherDisplay:10.37,2013-02-05 05:41:00,
2013-02-05 06:46:00,31.8,29.5,29.87,South,180,0.0,0.0,91,0.00,CLR,SKC,0.00,WeatherDisplay:10.37,2013-02-05 05:46:00,
2013-02-05 06:51:00,31.8,29.5,29.87,WSW,248,0.0,0.0,91,0.00,CLR,SKC,0.00,WeatherDisplay:10.37,2013-02-05 05:51:00,
2013-02-05 06:56:00,32.2,29.8,29.87,West,270,0.0,0.0,91,0.00,CLR,SKC,0.00,WeatherDisplay:10.37,2013-02-05 05:56:00,
2013-02-05 07:01:00,32.2,29.8,29.86,West,263,0.0,0.0,91,0.00,CLR,SKC,0.00,WeatherDisplay:10.37,2013-02-05 06:01:00,
2013-02-05 07:06:00,32.2,29.8,29.86,WSW,248,0.0,0.0,91,0.00,CLR,SKC,0.00,WeatherDisplay:10.37,2013-02-05 06:06:00,
2013-02-05 07:11:00,32.2,29.8,29.87,WSW,248,0.0,0.0,91,0.00,CLR,SKC,0.00,WeatherDisplay:10.37,2013-02-05 06:11:00,
2013-02-05 07:16:00,32.2,29.8,29.87,WSW,248,0.0,0.0,91,0.00,CLR,SKC,0.00,WeatherDisplay:10.37,2013-02-05 06:16:00,
2013-02-05 07:22:00,32.2,30.1,29.87,West,270,0.0,0.0,92,0.00,CLR,SKC,0.00,WeatherDisplay:10.37,2013-02-05 06:22:00,
2013-02-05 07:27:00,32.2,30.1,29.87,West,270,0.0,0.0,92,0.00,CLR,SKC,0.00,WeatherDisplay:10.37,2013-02-05 06:27:00,
2013-02-05 07:32:00,32.2,30.1,29.87,West,271,0.0,0.0,92,0.00,CLR,SKC,0.00,WeatherDisplay:10.37,2013-02-05 06:32:00,
2013-02-05 07:37:00,32.2,30.1,29.87,West,271,0.0,0.0,92,0.00,CLR,SKC,0.00,WeatherDisplay:10.37,2013-02-05 06:37:00,
2013-02-05 07:42:00,32.5,30.5,29.87,South,180,0.0,0.0,92,0.00,CLR,SKC,0.00,WeatherDisplay:10.37,2013-02-05 06:42:00,
2013-02-05 07:47:00,32.7,30.7,29.87,West,270,0.0,0.0,92,0.00,CLR,SKC,0.00,WeatherDisplay:10.37,2013-02-05 06:47:00,
2013-02-05 07:52:00,33.3,31.2,29.87,West,270,0.4,1.1,92,0.00,CLR,SKC,0.00,WeatherDisplay:10.37,2013-02-05 06:52:00,
2013-02-05 07:57:00,33.4,31.4,29.87,WSW,248,0.0,0.0,92,0.00,CLR,SKC,0.00,WeatherDisplay:10.37,2013-02-05 06:57:00,
2013-02-05 08:02:00,33.6,31.5,29.87,West,270,0.9,1.1,92,0.00,CLR,SKC,0.00,WeatherDisplay:10.37,2013-02-05 07:02:00,
2013-02-05 08:07:00,33.6,31.5,29.87,WNW,292,0.0,0.0,92,0.00,CLR,SKC,0.00,WeatherDisplay:10.37,2013-02-05 07:07:00,
2013-02-05 08:12:00,33.6,31.5,29.87,WNW,292,0.0,0.0,92,0.00,CLR,SKC,0.00,WeatherDisplay:10.37,2013-02-05 07:12:00,
2013-02-05 08:17:00,33.6,31.5,29.87,WNW,294,0.0,0.0,92,0.00,CLR,SKC,0.00,WeatherDisplay:10.37,2013-02-05 07:17:00,
2013-02-05 08:22:00,33.6,31.5,29.87,WNW,294,0.0,0.0,92,0.00,CLR,SKC,0.00,WeatherDisplay:10.37,2013-02-05 07:22:00,
2013-02-05 08:27:00,33.6,31.5,29.87,WNW,294,0.0,0.0,92,0.00,CLR,SKC,0.00,WeatherDisplay:10.37,2013-02-05 07:27:00,
2013-02-05 08:32:00,33.6,31.5,29.86,WNW,294,0.0,0.0,92,0.00,CLR,SKC,0.00,WeatherDisplay:10.37,2013-02-05 07:32:00,
2013-02-05 08:37:00,34.3,32.3,29.86,WNW,292,0.0,0.0,92,0.00,CLR,SKC,0.00,WeatherDisplay:10.37,2013-02-05 07:37:00,
2013-02-05 08:42:00,34.3,32.3,29.86,NW,315,0.0,0.0,92,0.00,CLR,SKC,0.00,WeatherDisplay:10.37,2013-02-05 07:42:00,
2013-02-05 08:47:00,34.5,32.4,29.86,WNW,292,0.0,1.1,92,0.00,CLR,SKC,0.00,WeatherDisplay:10.37,2013-02-05 07:47:00,
2013-02-05 08:52:00,34.9,33.1,29.85,WNW,292,0.0,0.0,93,0.00,CLR,SKC,0.00,WeatherDisplay:10.37,2013-02-05 07:52:00,
2013-02-05 08:57:00,34.9,32.8,29.85,WNW,292,0.0,0.0,92,0.00,CLR,SKC,0.00,WeatherDisplay:10.37,2013-02-05 07:57:00,
2013-02-05 09:02:00,34.9,33.1,29.85,WSW,248,0.0,0.0,93,0.00,CLR,SKC,0.00,WeatherDisplay:10.37,2013-02-05 08:02:00,
2013-02-05 09:07:00,34.9,33.1,29.85,WSW,248,0.0,0.0,93,0.00,CLR,SKC,0.00,WeatherDisplay:10.37,2013-02-05 08:07:00,
2013-02-05 09:12:00,35.2,33.4,29.85,West,270,0.0,0.0,93,0.00,CLR,SKC,0.00,WeatherDisplay:10.37,2013-02-05 08:12:00,
2013-02-05 09:17:00,35.2,33.4,29.85,West,270,0.0,0.0,93,0.00,CLR,SKC,0.00,WeatherDisplay:10.37,2013-02-05 08:17:00,
2013-02-05 09:22:00,35.2,33.4,29.84,SE,135,2.2,2.3,93,0.00,CLR,SKC,0.00,WeatherDisplay:10.37,2013-02-05 08:22:00,
2013-02-05 09:27:00,35.4,33.6,29.84,SSE,158,0.0,0.0,93,0.00,CLR,SKC,0.00,WeatherDisplay:10.37,2013-02-05 08:27:00,
2013-02-05 09:32:00,35.8,34.0,29.85,SSW,202,0.0,0.0,93,0.00,CLR,SKC,0.00,WeatherDisplay:10.37,2013-02-05 08:32:00,
2013-02-05 09:37:00,36.1,34.3,29.85,SSE,158,0.2,1.1,93,0.00,CLR,SKC,0.00,WeatherDisplay:10.37,2013-02-05 08:37:00,
2013-02-05 09:42:00,36.3,34.5,29.84,South,180,0.6,2.3,93,0.00,CLR,SKC,0.00,WeatherDisplay:10.37,2013-02-05 08:42:00,
2013-02-05 09:47:00,36.5,34.7,29.84,SSE,158,0.7,1.1,93,0.00,CLR,SKC,0.00,WeatherDisplay:10.37,2013-02-05 08:47:00,
2013-02-05 09:52:00,37.0,35.2,29.84,SSW,202,1.0,1.1,93,0.00,CLR,SKC,0.00,WeatherDisplay:10.37,2013-02-05 08:52:00,
2013-02-05 09:57:00,37.2,35.4,29.84,WSW,248,0.0,0.0,93,0.00,CLR,SKC,0.00,WeatherDisplay:10.37,2013-02-05 08:57:00,
2013-02-05 10:02:00,37.4,35.6,29.84,SSE,158,5.3,5.8,93,0.00,CLR,SKC,0.00,WeatherDisplay:10.37,2013-02-05 09:02:00,
2013-02-05 10:07:00,37.9,36.1,29.84,SE,135,0.0,0.0,93,0.00,CLR,SKC,0.00,WeatherDisplay:10.37,2013-02-05 09:07:00,
2013-02-05 10:12:00,37.9,36.1,29.83,South,180,0.0,0.0,93,0.00,CLR,SKC,0.00,WeatherDisplay:10.37,2013-02-05 09:12:00,
2013-02-05 10:17:00,38.5,36.4,29.83,SSW,202,0.0,0.0,92,0.00,CLR,SKC,0.00,WeatherDisplay:10.37,2013-02-05 09:17:00,
2013-02-05 10:22:00,38.5,36.4,29.84,SSE,158,0.0,0.0,92,0.00,CLR,SKC,0.00,WeatherDisplay:10.37,2013-02-05 09:22:00,
2013-02-05 10:27:00,38.8,36.7,29.83,SE,135,0.0,0.0,92,0.00,CLR,SKC,0.00,WeatherDisplay:10.37,2013-02-05 09:27:00,
2013-02-05 10:32:00,39.0,36.6,29.83,SSE,158,0.0,0.0,91,0.00,CLR,SKC,0.00,WeatherDisplay:10.37,2013-02-05 09:32:00,
2013-02-05 10:37:00,39.0,36.6,29.84,SSE,158,2.5,2.5,91,0.00,CLR,SKC,0.00,WeatherDisplay:10.37,2013-02-05 09:37:00,
2013-02-05 10:42:00,39.0,36.3,29.83,South,180,0.0,0.0,90,0.00,CLR,SKC,0.00,WeatherDisplay:10.37,2013-02-05 09:42:00,
2013-02-05 10:47:00,39.4,36.4,29.83,South,180,0.0,0.0,89,0.00,CLR,SKC,0.00,WeatherDisplay:10.37,2013-02-05 09:47:00,
2013-02-05 10:52:00,39.4,36.1,29.83,ESE,112,0.0,0.0,88,0.00,CLR,SKC,0.00,WeatherDisplay:10.37,2013-02-05 09:52:00,
2013-02-05 10:57:00,39.4,35.5,29.83,East,90,0.0,0.0,86,0.00,CLR,SKC,0.00,WeatherDisplay:10.37,2013-02-05 09:57:00,
2013-02-05 11:02:00,39.6,35.7,29.83,ESE,112,0.0,0.0,86,0.00,CLR,SKC,0.00,WeatherDisplay:10.37,2013-02-05 10:02:00,
2013-02-05 11:07:00,39.6,35.4,29.83,South,180,1.6,1.6,85,0.00,CLR,SKC,0.00,WeatherDisplay:10.37,2013-02-05 10:07:00,
2013-02-05 11:12:00,39.7,35.3,29.83,East,90,1.1,1.1,84,0.00,CLR,SKC,0.00,WeatherDisplay:10.37,2013-02-05 10:12:00,
2013-02-05 11:17:00,39.9,35.2,29.81,South,180,0.6,1.1,83,0.00,CLR,SKC,0.00,WeatherDisplay:10.37,2013-02-05 10:17:00,
2013-02-05 11:22:00,39.9,35.2,29.81,SE,135,1.0,2.3,83,0.00,CLR,SKC,0.00,WeatherDisplay:10.37,2013-02-05 10:22:00,
2013-02-05 11:27:00,39.9,35.2,29.81,SE,135,1.6,1.6,83,0.00,CLR,SKC,0.00,WeatherDisplay:10.37,2013-02-05 10:27:00,
2013-02-05 11:32:00,39.6,34.2,29.81,SSE,158,2.1,3.5,81,0.00,CLR,SKC,0.00,WeatherDisplay:10.37,2013-02-05 10:32:00,
2013-02-05 11:37:00,39.6,33.9,29.81,SSE,158,0.6,1.1,80,0.00,CLR,SKC,0.00,WeatherDisplay:10.37,2013-02-05 10:37:00,
2013-02-05 11:42:00,39.6,34.2,29.81,East,90,1.0,2.3,81,0.00,CLR,SKC,0.00,WeatherDisplay:10.37,2013-02-05 10:42:00,
2013-02-05 11:47:00,39.6,34.2,29.81,ESE,112,1.6,1.6,81,0.00,CLR,SKC,0.00,WeatherDisplay:10.37,2013-02-05 10:47:00,
2013-02-05 11:52:00,39.7,34.7,29.81,ESE,112,0.0,0.0,82,0.00,CLR,SKC,0.00,WeatherDisplay:10.37,2013-02-05 10:52:00,
2013-02-05 11:57:00,39.7,34.7,29.80,West,270,0.0,0.0,82,0.00,CLR,SKC,0.00,WeatherDisplay:10.37,2013-02-05 10:57:00,
2013-02-05 12:02:00,39.7,34.7,29.80,WNW,292,0.0,0.0,82,0.00,CLR,SKC,0.00,WeatherDisplay:10.37,2013-02-05 11:02:00,
2013-02-05 12:07:00,39.9,34.9,29.79,SSE,158,3.1,3.5,82,0.00,CLR,SKC,0.00,WeatherDisplay:10.37,2013-02-05 11:07:00,
2013-02-05 12:12:00,39.9,34.9,29.79,ESE,112,0.0,0.0,82,0.00,CLR,SKC,0.00,WeatherDisplay:10.37,2013-02-05 11:12:00,
2013-02-05 12:17:00,40.1,35.0,29.79,South,180,2.5,2.5,82,0.00,CLR,SKC,0.00,WeatherDisplay:10.37,2013-02-05 11:17:00,
2013-02-05 12:22:00,39.9,34.6,29.79,ENE,68,0.0,0.0,81,0.00,CLR,SKC,0.00,WeatherDisplay:10.37,2013-02-05 11:22:00,
2013-02-05 12:27:00,39.9,34.6,29.78,ENE,68,0.0,0.0,81,0.00,CLR,SKC,0.00,WeatherDisplay:10.37,2013-02-05 11:27:00,
2013-02-05 12:32:00,39.9,34.9,29.78,SE,135,0.0,0.0,82,0.00,CLR,SKC,0.00,WeatherDisplay:10.37,2013-02-05 11:32:00,
2013-02-05 12:37:00,39.9,34.9,29.77,ENE,68,1.3,1.3,82,0.00,CLR,SKC,0.00,WeatherDisplay:10.37,2013-02-05 11:37:00,
2013-02-05 12:42:00,39.9,34.9,29.77,ENE,68,1.3,1.3,82,0.00,CLR,SKC,0.00,WeatherDisplay:10.37,2013-02-05 11:42:00,
2013-02-05 12:47:00,40.3,35.2,29.77,South,180,4.5,4.6,82,0.00,BKN,SKC,0.00,WeatherDisplay:10.37,2013-02-05 11:47:00,
2013-02-05 12:52:00,40.3,34.9,29.78,South,180,0.0,0.0,81,0.00,BKN,SKC,0.00,WeatherDisplay:10.37,2013-02-05 11:52:00,
2013-02-05 12:57:00,40.6,35.3,29.77,ESE,112,0.0,0.0,81,0.00,BKN,SKC,0.00,WeatherDisplay:10.37,2013-02-05 11:57:00,
2013-02-05 13:02:00,40.8,35.4,29.77,SE,135,0.0,0.0,81,0.00,BKN,SKC,0.00,WeatherDisplay:10.37,2013-02-05 12:02:00,
2013-02-05 13:07:00,41.0,35.6,29.76,East,90,0.0,0.0,81,0.00,BKN,SKC,0.00,WeatherDisplay:10.37,2013-02-05 12:07:00,
2013-02-05 13:12:00,41.0,35.6,29.76,East,90,0.0,0.0,81,0.00,BKN,SKC,0.00,WeatherDisplay:10.37,2013-02-05 12:12:00,
2013-02-05 13:17:00,41.0,35.3,29.76,NE,45,0.0,0.0,80,0.00,BKN,SKC,0.00,WeatherDisplay:10.37,2013-02-05 12:17:00,
2013-02-05 13:22:00,41.2,35.5,29.75,North,0,0.0,0.0,80,0.00,BKN,SKC,0.00,WeatherDisplay:10.37,2013-02-05 12:22:00,
2013-02-05 13:27:00,41.4,35.3,29.75,South,180,3.8,3.8,79,0.00,BKN,SKC,0.00,WeatherDisplay:10.37,2013-02-05 12:27:00,
2013-02-05 13:32:00,41.5,35.5,29.74,SSE,158,3.4,3.5,79,0.00,BKN,SKC,0.00,WeatherDisplay:10.37,2013-02-05 12:32:00,
2013-02-05 13:37:00,41.5,34.9,29.74,ESE,112,0.7,3.5,77,0.00,BKN,SKC,0.00,WeatherDisplay:10.37,2013-02-05 12:37:00,
2013-02-05 13:42:00,41.2,34.5,29.74,SSE,158,0.4,1.1,77,0.00,BKN,SKC,0.00,WeatherDisplay:10.37,2013-02-05 12:42:00,
2013-02-05 13:47:00,41.2,34.8,29.74,East,90,4.0,4.0,78,0.00,BKN,SKC,0.00,WeatherDisplay:10.37,2013-02-05 12:47:00,
2013-02-05 13:52:00,41.2,34.8,29.73,SE,135,1.1,1.1,78,0.00,BKN,SKC,0.00,WeatherDisplay:10.37,2013-02-05 12:52:00,
2013-02-05 13:57:00,41.2,35.2,29.73,East,90,0.0,0.0,79,0.00,BKN,SKC,0.00,WeatherDisplay:10.37,2013-02-05 12:57:00,
2013-02-05 14:02:00,41.2,35.2,29.73,East,90,0.0,0.0,79,0.00,BKN,SKC,0.00,WeatherDisplay:10.37,2013-02-05 13:02:00,
2013-02-05 14:07:00,41.2,35.2,29.72,SE,135,0.0,0.0,79,0.00,BKN,SKC,0.00,WeatherDisplay:10.37,2013-02-05 13:07:00,
2013-02-05 14:12:00,41.4,35.3,29.72,SE,135,0.0,0.0,79,0.00,BKN,SKC,0.00,WeatherDisplay:10.37,2013-02-05 13:12:00,
2013-02-05 14:17:00,41.4,35.7,29.72,SSW,202,0.0,0.0,80,0.00,BKN,SKC,0.00,WeatherDisplay:10.37,2013-02-05 13:17:00,
2013-02-05 14:22:00,41.4,35.7,29.72,NNE,22,0.0,0.0,80,0.00,BKN,SKC,0.00,WeatherDisplay:10.37,2013-02-05 13:22:00,
2013-02-05 14:27:00,41.5,35.8,29.72,SE,135,1.6,1.6,80,0.00,BKN,SKC,0.00,WeatherDisplay:10.37,2013-02-05 13:27:00,
2013-02-05 14:32:00,41.5,35.8,29.73,South,180,0.0,0.0,80,0.00,BKN,SKC,0.00,WeatherDisplay:10.37,2013-02-05 13:32:00,
2013-02-05 14:37:00,41.5,35.8,29.71,SSE,158,0.0,0.0,80,0.00,BKN,SKC,0.00,WeatherDisplay:10.37,2013-02-05 13:37:00,
2013-02-05 14:42:00,41.5,35.8,29.71,South,180,0.9,1.1,80,0.00,BKN,SKC,0.00,WeatherDisplay:10.37,2013-02-05 13:42:00,
2013-02-05 14:47:00,41.7,36.0,29.72,ENE,68,0.0,0.0,80,0.00,BKN,SKC,0.00,WeatherDisplay:10.37,2013-02-05 13:47:00,
2013-02-05 14:52:00,41.7,36.0,29.71,NNE,22,0.0,0.0,80,0.00,BKN,SKC,0.00,WeatherDisplay:10.37,2013-02-05 13:52:00,
2013-02-05 14:57:00,41.7,36.3,29.70,East,90,0.0,0.0,81,0.00,BKN,SKC,0.00,WeatherDisplay:10.37,2013-02-05 13:57:00,
2013-02-05 15:02:00,41.7,36.3,29.70,SSE,158,0.0,0.0,81,0.00,BKN,SKC,0.00,WeatherDisplay:10.37,2013-02-05 14:02:00,
2013-02-05 15:07:00,41.7,36.3,29.70,NE,45,0.0,0.0,81,0.00,BKN,SKC,0.00,WeatherDisplay:10.37,2013-02-05 14:07:00,
2013-02-05 15:12:00,41.5,36.1,29.69,NE,45,0.0,0.0,81,0.00,BKN,SKC,0.00,WeatherDisplay:10.37,2013-02-05 14:12:00,
2013-02-05 15:17:00,41.7,36.3,29.69,NNE,22,0.0,0.0,81,0.00,BKN,SKC,0.00,WeatherDisplay:10.37,2013-02-05 14:17:00,
2013-02-05 15:22:00,41.7,36.3,29.69,NNW,338,0.0,0.0,81,0.00,BKN,SKC,0.00,WeatherDisplay:10.37,2013-02-05 14:22:00,
2013-02-05 15:27:00,41.7,36.3,29.69,NNW,338,0.0,0.0,81,0.00,BKN,SKC,0.00,WeatherDisplay:10.37,2013-02-05 14:27:00,
2013-02-05 15:32:00,41.7,36.3,29.69,NNW,338,0.0,0.0,81,0.00,BKN,SKC,0.00,WeatherDisplay:10.37,2013-02-05 14:32:00,
2013-02-05 15:37:00,41.5,36.5,29.68,NNW,338,0.0,0.0,82,0.00,BKN,SKC,0.00,WeatherDisplay:10.37,2013-02-05 14:37:00,
2013-02-05 15:42:00,41.5,36.5,29.69,NNW,338,0.0,0.0,82,0.00,BKN,SKC,0.00,WeatherDisplay:10.37,2013-02-05 14:42:00,
2013-02-05 15:47:00,41.4,36.6,29.69,WNW,292,0.0,0.0,83,0.00,BKN,SKC,0.00,WeatherDisplay:10.37,2013-02-05 14:47:00,
2013-02-05 15:52:00,41.5,36.8,29.69,NW,315,0.0,0.0,83,0.00,BKN,SKC,0.00,WeatherDisplay:10.37,2013-02-05 14:52:00,
2013-02-05 15:57:00,41.5,36.8,29.69,SE,135,0.0,0.0,83,0.00,BKN,SKC,0.00,WeatherDisplay:10.37,2013-02-05 14:57:00,
2013-02-05 16:02:00,41.7,36.6,29.69,West,270,0.4,1.1,82,0.00,BKN,SKC,0.00,WeatherDisplay:10.37,2013-02-05 15:02:00,
2013-02-05 16:07:00,41.9,36.8,29.68,SSE,158,0.0,0.0,82,0.00,BKN,SKC,0.00,WeatherDisplay:10.37,2013-02-05 15:07:00,
2013-02-05 16:12:00,42.1,37.0,29.68,SE,135,0.0,0.0,82,0.00,BKN,SKC,0.00,WeatherDisplay:10.37,2013-02-05 15:12:00,
2013-02-05 16:17:00,42.1,37.0,29.68,SSE,158,0.0,0.0,82,0.00,BKN,SKC,0.00,WeatherDisplay:10.37,2013-02-05 15:17:00,
2013-02-05 16:22:00,42.1,36.7,29.68,SSE,158,0.0,0.0,81,0.00,BKN,SKC,0.00,WeatherDisplay:10.37,2013-02-05 15:22:00,
2013-02-05 16:27:00,42.1,36.7,29.67,SSE,158,0.0,2.3,81,0.00,BKN,SKC,0.00,WeatherDisplay:10.37,2013-02-05 15:27:00,
2013-02-05 16:32:00,42.1,36.7,29.67,East,90,0.0,0.0,81,0.00,BKN,SKC,0.00,WeatherDisplay:10.37,2013-02-05 15:32:00,
2013-02-05 16:37:00,42.1,37.0,29.68,SW,225,0.0,0.0,82,0.00,BKN,SKC,0.00,WeatherDisplay:10.37,2013-02-05 15:37:00,
2013-02-05 16:42:00,41.9,36.8,29.68,NW,315,0.0,0.0,82,0.00,BKN,SKC,0.00,WeatherDisplay:10.37,2013-02-05 15:42:00,
2013-02-05 16:47:00,41.7,36.6,29.68,NW,315,0.0,0.0,82,0.00,BKN,SKC,0.00,WeatherDisplay:10.37,2013-02-05 15:47:00,
2013-02-05 16:52:00,41.5,36.5,29.68,WNW,292,0.0,0.0,82,0.00,BKN,SKC,0.00,WeatherDisplay:10.37,2013-02-05 15:52:00,
2013-02-05 16:57:00,41.4,36.6,29.68,West,270,0.0,0.0,83,0.00,BKN,SKC,0.00,WeatherDisplay:10.37,2013-02-05 15:57:00,
2013-02-05 17:02:00,41.4,36.6,29.68,NNW,338,0.0,0.0,83,0.00,BKN,SKC,0.00,WeatherDisplay:10.37,2013-02-05 16:02:00,
2013-02-05 17:07:00,41.2,36.4,29.68,NW,315,0.0,0.0,83,0.00,BKN,SKC,0.00,WeatherDisplay:10.37,2013-02-05 16:07:00,
2013-02-05 17:12:00,40.8,36.1,29.68,WNW,292,0.0,0.0,83,0.00,BKN,SKC,0.00,WeatherDisplay:10.37,2013-02-05 16:12:00,
2013-02-05 17:17:00,40.8,36.4,29.68,South,180,1.1,2.0,84,0.00,BKN,SKC,0.00,WeatherDisplay:10.37,2013-02-05 16:17:00,
2013-02-05 17:22:00,40.8,36.4,29.68,South,180,0.9,1.1,84,0.00,BKN,SKC,0.00,WeatherDisplay:10.37,2013-02-05 16:22:00,
2013-02-05 17:27:00,40.8,36.4,29.67,WSW,248,0.0,0.0,84,0.00,BKN,SKC,0.00,WeatherDisplay:10.37,2013-02-05 16:27:00,
2013-02-05 17:32:00,40.6,36.5,29.67,SSE,158,0.0,0.0,85,0.00,BKN,SKC,0.00,WeatherDisplay:10.37,2013-02-05 16:32:00,
2013-02-05 17:37:00,40.6,36.5,29.66,West,270,0.0,0.0,85,0.00,BKN,SKC,0.00,WeatherDisplay:10.37,2013-02-05 16:37:00,
2013-02-05 17:42:00,40.6,36.5,29.65,West,270,0.0,0.0,85,0.00,BKN,SKC,0.00,WeatherDisplay:10.37,2013-02-05 16:42:00,
2013-02-05 17:47:00,40.6,36.5,29.65,NNW,338,0.6,1.1,85,0.00,OVC,SKC,0.00,WeatherDisplay:10.37,2013-02-05 16:47:00,
2013-02-05 17:52:00,40.5,36.3,29.67,WNW,292,0.0,0.0,85,0.00,OVC,SKC,0.00,WeatherDisplay:10.37,2013-02-05 16:52:00,
2013-02-05 17:57:00,40.5,36.3,29.67,WNW,292,0.0,0.0,85,0.00,OVC,SKC,0.00,WeatherDisplay:10.37,2013-02-05 16:57:00,
2013-02-05 18:02:00,40.1,36.0,29.65,West,270,0.0,0.0,85,0.00,OVC,SKC,0.00,WeatherDisplay:10.37,2013-02-05 17:02:00,
2013-02-05 18:07:00,40.1,36.0,29.65,West,270,0.0,0.0,85,0.00,OVC,SKC,0.00,WeatherDisplay:10.37,2013-02-05 17:07:00,
2013-02-05 18:12:00,39.9,36.1,29.65,West,270,0.0,0.0,86,0.00,OVC,SKC,0.00,WeatherDisplay:10.37,2013-02-05 17:12:00,
2013-02-05 18:17:00,39.7,35.9,29.65,West,270,0.0,0.0,86,0.00,BKN,SKC,0.00,WeatherDisplay:10.37,2013-02-05 17:17:00,
2013-02-05 18:22:00,39.7,35.9,29.65,West,270,0.0,0.0,86,0.00,BKN,SKC,0.00,WeatherDisplay:10.37,2013-02-05 17:22:00,
2013-02-05 18:27:00,39.4,35.5,29.65,WNW,292,0.0,1.8,86,0.00,BKN,SKC,0.00,WeatherDisplay:10.37,2013-02-05 17:27:00,
2013-02-05 18:32:00,39.0,35.5,29.65,WNW,292,0.0,0.0,87,0.00,BKN,SKC,0.00,WeatherDisplay:10.37,2013-02-05 17:32:00,
2013-02-05 18:37:00,39.0,35.5,29.65,WNW,292,0.0,0.0,87,0.00,BKN,SKC,0.00,WeatherDisplay:10.37,2013-02-05 17:37:00,
2013-02-05 18:42:00,39.0,35.5,29.65,WNW,292,0.0,0.0,87,0.00,BKN,SKC,0.00,WeatherDisplay:10.37,2013-02-05 17:42:00,
2013-02-05 18:47:00,39.0,35.5,29.65,WNW,292,0.0,0.0,87,0.00,BKN,SKC,0.00,WeatherDisplay:10.37,2013-02-05 17:47:00,
2013-02-05 18:52:00,39.0,35.5,29.65,WNW,292,0.0,0.0,87,0.00,BKN,SKC,0.00,WeatherDisplay:10.37,2013-02-05 17:52:00,
2013-02-05 18:57:00,39.0,35.5,29.65,WNW,292,0.0,0.0,87,0.00,BKN,SKC,0.00,WeatherDisplay:10.37,2013-02-05 17:57:00,
2013-02-05 19:02:00,39.0,35.5,29.65,West,270,0.0,0.0,87,0.00,CLR,SKC,0.00,WeatherDisplay:10.37,2013-02-05 18:02:00,
2013-02-05 19:07:00,39.0,35.5,29.65,West,270,0.0,0.0,87,0.00,CLR,SKC,0.00,WeatherDisplay:10.37,2013-02-05 18:07:00,
2013-02-05 19:12:00,39.0,35.8,29.65,South,180,0.0,0.0,88,0.00,CLR,SKC,0.00,WeatherDisplay:10.37,2013-02-05 18:12:00,
2013-02-05 19:17:00,39.2,35.9,29.65,West,270,0.0,0.0,88,0.00,CLR,SKC,0.00,WeatherDisplay:10.37,2013-02-05 18:17:00,
2013-02-05 19:22:00,39.4,36.1,29.65,West,270,0.0,0.0,88,0.00,CLR,SKC,0.00,WeatherDisplay:10.37,2013-02-05 18:22:00,
2013-02-05 19:27:00,39.2,35.9,29.65,West,270,0.0,0.0,88,0.00,CLR,SKC,0.00,WeatherDisplay:10.37,2013-02-05 18:27:00,
2013-02-05 19:32:00,39.0,35.8,29.65,WNW,292,0.0,0.0,88,0.00,CLR,SKC,0.00,WeatherDisplay:10.37,2013-02-05 18:32:00,
2013-02-05 19:37:00,39.0,35.8,29.65,SE,135,0.0,0.0,88,0.00,CLR,SKC,0.00,WeatherDisplay:10.37,2013-02-05 18:37:00,
2013-02-05 19:42:00,39.0,35.8,29.65,SSE,158,0.0,0.0,88,0.00,CLR,SKC,0.00,WeatherDisplay:10.37,2013-02-05 18:42:00,
2013-02-05 19:47:00,39.0,35.8,29.65,West,270,0.0,0.0,88,0.00,CLR,SKC,0.00,WeatherDisplay:10.37,2013-02-05 18:47:00,
2013-02-05 19:52:00,39.9,36.7,29.65,SE,135,0.0,0.0,88,0.00,CLR,SKC,0.00,WeatherDisplay:10.37,2013-02-05 18:52:00,
2013-02-05 19:57:00,40.6,37.4,29.64,SSE,158,2.5,2.5,88,0.00,CLR,SKC,0.00,WeatherDisplay:10.37,2013-02-05 18:57:00,
2013-02-05 20:02:00,41.0,37.1,29.64,ESE,112,1.3,2.3,86,0.00,CLR,SKC,0.00,WeatherDisplay:10.37,2013-02-05 19:02:00,
2013-02-05 20:07:00,41.0,37.1,29.64,ESE,112,0.0,0.0,86,0.00,CLR,SKC,0.00,WeatherDisplay:10.37,2013-02-05 19:07:00,
2013-02-05 20:12:00,40.6,36.8,29.65,NW,315,0.0,0.0,86,0.00,CLR,SKC,0.00,WeatherDisplay:10.37,2013-02-05 19:12:00,
2013-02-05 20:17:00,40.3,36.4,29.65,WSW,248,0.0,0.0,86,0.00,CLR,SKC,0.00,WeatherDisplay:10.37,2013-02-05 19:17:00,
2013-02-05 20:22:00,39.9,36.1,29.65,West,270,0.0,0.0,86,0.00,CLR,SKC,0.00,WeatherDisplay:10.37,2013-02-05 19:22:00,
2013-02-05 20:27:00,39.7,35.9,29.65,West,270,0.0,0.0,86,0.00,CLR,SKC,0.00,WeatherDisplay:10.37,2013-02-05 19:27:00,
2013-02-05 20:32:00,39.4,35.5,29.65,West,270,0.0,0.0,86,0.00,CLR,SKC,0.00,WeatherDisplay:10.37,2013-02-05 19:32:00,
2013-02-05 20:37:00,39.6,35.7,29.65,NNE,22,0.0,0.0,86,0.00,CLR,SKC,0.00,WeatherDisplay:10.37,2013-02-05 19:37:00,
2013-02-05 20:42:00,39.6,35.7,29.65,NW,315,0.0,0.0,86,0.00,CLR,SKC,0.00,WeatherDisplay:10.37,2013-02-05 19:42:00,
2013-02-05 20:47:00,39.4,35.5,29.65,NNW,338,0.0,0.0,86,0.00,CLR,SKC,0.00,WeatherDisplay:10.37,2013-02-05 19:47:00,
2013-02-05 20:52:00,39.4,35.5,29.65,SW,225,0.0,0.0,86,0.00,CLR,SKC,0.00,WeatherDisplay:10.37,2013-02-05 19:52:00,
2013-02-05 20:57:00,40.3,36.4,29.65,West,270,1.2,3.5,86,0.00,CLR,SKC,0.00,WeatherDisplay:10.37,2013-02-05 19:57:00,
2013-02-05 21:03:00,41.2,37.3,29.65,ESE,112,0.0,0.0,86,0.00,CLR,SKC,0.00,WeatherDisplay:10.37,2013-02-05 20:03:00,
2013-02-05 21:08:00,41.2,37.3,29.65,ESE,112,0.0,0.0,86,0.00,CLR,SKC,0.00,WeatherDisplay:10.37,2013-02-05 20:08:00,
2013-02-05 21:13:00,40.6,36.2,29.65,South,180,0.2,1.1,84,0.00,CLR,SKC,0.00,WeatherDisplay:10.37,2013-02-05 20:13:00,
2013-02-05 21:18:00,40.6,36.2,29.65,West,270,0.0,0.0,84,0.00,CLR,SKC,0.00,WeatherDisplay:10.37,2013-02-05 20:18:00,
2013-02-05 21:23:00,40.5,36.0,29.65,WNW,292,0.0,0.0,84,0.00,CLR,SKC,0.00,WeatherDisplay:10.37,2013-02-05 20:23:00,
2013-02-05 21:28:00,39.7,35.3,29.64,WNW,292,0.0,0.0,84,0.00,CLR,SKC,0.00,WeatherDisplay:10.37,2013-02-05 20:28:00,
2013-02-05 21:33:00,39.4,34.9,29.64,WNW,292,0.0,0.0,84,0.00,CLR,SKC,0.00,WeatherDisplay:10.37,2013-02-05 20:33:00,
2013-02-05 21:38:00,38.8,34.4,29.64,NW,315,0.0,0.0,84,0.00,CLR,SKC,0.00,WeatherDisplay:10.37,2013-02-05 20:38:00,
2013-02-05 21:43:00,38.3,34.2,29.63,WNW,292,0.0,0.0,85,0.00,CLR,SKC,0.00,WeatherDisplay:10.37,2013-02-05 20:43:00,
2013-02-05 21:48:00,37.9,33.8,29.63,WNW,292,0.0,0.0,85,0.00,CLR,SKC,0.00,WeatherDisplay:10.37,2013-02-05 20:48:00,
2013-02-05 21:53:00,37.9,33.8,29.63,West,270,0.0,0.0,85,0.00,CLR,SKC,0.00,WeatherDisplay:10.37,2013-02-05 20:53:00,
2013-02-05 21:58:00,37.9,34.1,29.63,West,270,0.0,0.0,86,0.00,CLR,SKC,0.00,WeatherDisplay:10.37,2013-02-05 20:58:00,
2013-02-05 22:03:00,36.9,33.1,29.63,WSW,248,0.0,0.0,86,0.00,CLR,SKC,0.00,WeatherDisplay:10.37,2013-02-05 21:03:00,
2013-02-05 22:08:00,36.9,33.1,29.63,South,180,0.0,0.0,86,0.00,CLR,SKC,0.00,WeatherDisplay:10.37,2013-02-05 21:08:00,
2013-02-05 22:13:00,37.0,33.5,29.62,WSW,248,0.0,0.0,87,0.00,CLR,SKC,0.00,WeatherDisplay:10.37,2013-02-05 21:13:00,
2013-02-05 22:18:00,37.0,33.2,29.62,SSE,158,0.0,0.0,86,0.00,CLR,SKC,0.00,WeatherDisplay:10.37,2013-02-05 21:18:00,
2013-02-05 22:23:00,36.1,32.6,29.62,South,180,0.0,0.0,87,0.00,CLR,SKC,0.00,WeatherDisplay:10.37,2013-02-05 21:23:00,
2013-02-05 22:28:00,36.1,32.6,29.61,WSW,248,0.0,0.0,87,0.00,CLR,SKC,0.00,WeatherDisplay:10.37,2013-02-05 21:28:00,
2013-02-05 22:33:00,36.0,32.5,29.62,West,270,0.0,0.0,87,0.00,CLR,SKC,0.00,WeatherDisplay:10.37,2013-02-05 21:33:00,
2013-02-05 22:38:00,35.8,32.6,29.61,SW,225,0.0,0.0,88,0.00,CLR,SKC,0.00,WeatherDisplay:10.37,2013-02-05 21:38:00,
2013-02-05 22:43:00,35.4,32.2,29.62,NW,315,0.0,0.0,88,0.00,CLR,SKC,0.00,WeatherDisplay:10.37,2013-02-05 21:43:00,
2013-02-05 22:48:00,35.2,32.0,29.62,NW,315,0.0,0.0,88,0.00,CLR,SKC,0.00,WeatherDisplay:10.37,2013-02-05 21:48:00,
2013-02-05 22:53:00,35.2,32.0,29.62,NW,315,0.0,0.0,88,0.00,CLR,SKC,0.00,WeatherDisplay:10.37,2013-02-05 21:53:00,
2013-02-05 22:58:00,34.9,31.7,29.61,NW,315,0.0,0.0,88,0.00,CLR,SKC,0.00,WeatherDisplay:10.37,2013-02-05 21:58:00,
2013-02-05 23:03:00,34.9,31.7,29.61,NW,315,0.0,0.0,88,0.00,CLR,SKC,0.00,WeatherDisplay:10.37,2013-02-05 22:03:00,
2013-02-05 23:08:00,34.5,31.6,29.61,NW,315,0.0,0.0,89,0.00,CLR,SKC,0.00,WeatherDisplay:10.37,2013-02-05 22:08:00,
2013-02-05 23:13:00,34.3,31.4,29.60,NW,315,0.0,0.0,89,0.00,CLR,SKC,0.00,WeatherDisplay:10.37,2013-02-05 22:13:00,
2013-02-05 23:18:00,34.3,31.4,29.60,NW,315,0.0,0.0,89,0.00,CLR,SKC,0.00,WeatherDisplay:10.37,2013-02-05 22:18:00,
2013-02-05 23:23:00,34.3,31.4,29.60,West,270,0.0,0.0,89,0.00,CLR,SKC,0.00,WeatherDisplay:10.37,2013-02-05 22:23:00,
2013-02-05 23:28:00,34.3,31.4,29.60,WNW,292,0.0,0.0,89,0.00,CLR,SKC,0.00,WeatherDisplay:10.37,2013-02-05 22:28:00,
2013-02-05 23:33:00,34.3,31.4,29.60,WNW,292,0.0,0.0,89,0.00,CLR,SKC,0.00,WeatherDisplay:10.37,2013-02-05 22:33:00,
2013-02-05 23:38:00,34.3,31.4,29.60,WNW,292,0.0,0.0,89,0.00,CLR,SKC,0.00,WeatherDisplay:10.37,2013-02-05 22:38:00,
2013-02-05 23:43:00,34.3,31.4,29.60,WNW,294,0.0,0.0,89,0.00,CLR,SKC,0.00,WeatherDisplay:10.37,2013-02-05 22:43:00,
2013-02-05 23:48:00,34.3,31.4,29.60,WNW,294,0.0,0.0,89,0.00,CLR,SKC,0.00,WeatherDisplay:10.37,2013-02-05 22:48:00,
2013-02-05 23:53:00,34.3,31.4,29.61,WNW,294,0.0,0.0,89,0.00,CLR,SKC,0.00,WeatherDisplay:10.37,2013-02-05 22:53:00,
2013-02-05 23:58:00,34.3,31.4,29.60,WNW,294,0.0,0.0,89,0.00,CLR,SKC,0.00,WeatherDisplay:10.37,2013-02-05 22:58:00,